• Join FlightAware (Why Join?)
  • Login
  • US Flag 
03:51AM EDT


 

Airport Tracker/Info


-or-


 

Live Flight TrackerFlight Track Log ✈ JTA613 ✈ 25-Oct-2013 ✈ ROAH / OKA - ROIG / ISG

Flight Track Log - Related Links

Times and Time Zones

All times are in EDT time to prevent confusion due to time zone crossing. See the JTA613 flight status page for this flight to view local times or setup timezone preferences in your user account.

Time Position Orientation Groundspeed Altitude Reporting Facility
EDT Latitude Longitude Course Direction KTS MPH feet Rate Location/Type
01:33AM 26.0449 127.3540 240° Southwest  Level Estimated
01:34AM 25.9945 127.2569 240° Southwest  Level Estimated
01:35AM 25.9440 127.1598 240° Southwest  Level Estimated
01:36AM 25.8934 127.0629 240° Southwest  Level Estimated
01:37AM 25.8428 126.9660 240° Southwest  Level Estimated
01:38AM 25.7921 126.8692 240° Southwest  Level Estimated
01:39AM 25.7413 126.7725 240° Southwest  Level Estimated
01:40AM 25.6905 126.6759 240° Southwest  Level Estimated
01:41AM 25.6396 126.5794 240° Southwest  Level Estimated
01:42AM 25.5887 126.4829 240° Southwest  Level Estimated
01:43AM 25.5377 126.3865 240° Southwest  Level Estimated
01:44AM 25.4851 126.2875 240° Southwest  Level Estimated
01:45AM 25.4325 126.1885 240° Southwest  Level Estimated
01:46AM 25.3799 126.0897 239° Southwest  Level Estimated
01:47AM 25.3271 125.9909 239° Southwest  Level Estimated
01:48AM 25.2743 125.8922 239° Southwest  Level Estimated
01:49AM 25.2215 125.7935 239° Southwest  Level Estimated
01:50AM 25.1685 125.6950 239° Southwest  Level Estimated
01:51AM 25.1155 125.5966 239° Southwest  Level Estimated
01:52AM 25.0625 125.4982 239° Southwest  Level Estimated
01:53AM 25.0093 125.3999 239° Southwest  Level Estimated
01:54AM 24.9562 125.3018 239° Southwest  Level Estimated
01:55AM 24.9029 125.2037 239° Southwest  Level Estimated
01:56AM 24.8496 125.1056 239° Southwest  Level Estimated
01:57AM 24.7962 125.0077 239° Southwest  Level Estimated
01:58AM 24.7428 124.9099 239° Southwest  Level Estimated
01:59AM 24.6893 124.8121 239° Southwest  Level Estimated
02:00AM 24.6357 124.7144 239° Southwest  Level Estimated
02:01AM 24.5820 124.6168 239° Southwest  Level Estimated
02:02AM 24.5283 124.5193 239° Southwest  Level Estimated
02:03AM 24.4746 124.4219 239° Southwest  Level Estimated
02:04AM 24.4208 124.3245 239° Southwest  Level Estimated
02:05AM 24.3669 124.2273 239° Southwest  Level Estimated
02:06AM 24.3445 124.1870 239° Southwest  Level Estimated
02:07AM 24.3445 124.1870 29° Northeast  Level Estimated
02:08AM 24.3445 124.1870 29° Northeast  Level Estimated
02:09AM 24.3445 124.1870 29° Northeast  Level Estimated
02:10AM 24.3445 124.1870 29° Northeast  Level Estimated
02:11AM 24.3445 124.1870 29° Northeast  Level Estimated
02:12AM 24.3445 124.1870 29° Northeast  Level Estimated
02:13AM 24.3445 124.1870 29° Northeast  Level Estimated
02:14AM 24.3445 124.1870 29° Northeast  Level Estimated